Marion, North Carolina
Current Conditions -  °F | °C
As of 2:55 AM on Monday 22 Dec 2014 (Local Time) from KFQD Reporting Station
Haze Haze  
Wind Chill: 42°   Ceiling: 2500
Heat Index: 42°   Visibility: 5mi
Dew Point: 39°   Wind: 3mph
Humidity: 90%   Direction: 360°N
Pressure: 30.15"   Gusts: NA
Location:  35.68°N, 82.01°W
Report Text: KFQD 220755Z AUTO 36003KT 5SM BR OVC025 06/04 A3015 RMK AO2 T00550040
Loading
Personal Weather Stations






























Interactive Weather Map New forecast layout! Learn more

10-Day Weather Forecast

Advertisements
Track Severe Weather on mobile